Time;durP1;ratioP1;P1;durP2;ratioP2;P2;SDS_P1;SDS_P2;PMS_P1;PMS_P2;Temp;Humidity;BMP_temperature;BMP_pressure;BME280_temperature;BME280_humidity;BME280_pressure;Samples;Min_cycle;Max_cycle;Signal;HPM_P1;HPM_P2
2023/08/16 00:00:00;;;;;;;1.73;1.13;;;;;;;24.03;93.19;99330.63;5049700;28;20205;-69
2023/08/16 00:02:27;;;;;;;1.10;1.10;;;;;;;24.04;93.56;99329.63;5049420;28;20208;-69
2023/08/16 00:04:53;;;;;;;1.60;1.33;;;;;;;24.04;93.78;99327.00;5049555;28;20243;-69
2023/08/16 00:07:22;;;;;;;1.30;1.27;;;;;;;24.05;93.57;99323.44;5049522;28;20574;-69
2023/08/16 00:09:51;;;;;;;0.90;0.90;;;;;;;23.93;93.01;99298.31;5049842;28;20679;-69
2023/08/16 00:12:17;;;;;;;1.27;1.10;;;;;;;24.07;93.71;99330.34;5049175;28;20205;-69
2023/08/16 00:14:44;;;;;;;1.27;1.17;;;;;;;24.01;93.95;99327.28;5049916;28;20204;-69
2023/08/16 00:17:11;;;;;;;1.03;1.03;;;;;;;23.98;94.56;99339.81;5049429;28;22514;-69
2023/08/16 00:19:38;;;;;;;1.30;1.10;;;;;;;24.00;94.79;99333.50;5049624;28;20665;-69
2023/08/16 00:22:05;;;;;;;1.20;1.20;;;;;;;24.02;95.02;99335.97;5049333;28;20243;-69
2023/08/16 00:24:33;;;;;;;1.77;1.17;;;;;;;23.99;94.56;99339.69;5049665;28;20685;-69
2023/08/16 00:27:00;;;;;;;0.90;0.90;;;;;;;23.98;94.72;99327.56;5049613;28;20204;-69
2023/08/16 00:29:26;;;;;;;1.37;1.20;;;;;;;23.98;94.40;99338.03;5049377;28;20196;-69
2023/08/16 00:31:53;;;;;;;1.57;1.00;;;;;;;23.91;94.07;99318.56;5049267;28;20251;-69
2023/08/16 00:34:20;;;;;;;0.93;0.93;;;;;;;23.95;94.64;99321.75;5049079;28;20193;-69
2023/08/16 00:36:46;;;;;;;1.43;1.43;;;;;;;23.90;94.28;99335.25;5049640;28;20208;-69
2023/08/16 00:39:13;;;;;;;0.80;0.80;;;;;;;23.92;94.27;99332.50;5049522;28;20266;-68
2023/08/16 00:41:41;;;;;;;1.43;1.33;;;;;;;23.94;93.96;99336.63;5049684;28;20193;-69
2023/08/16 00:44:08;;;;;;;0.90;0.90;;;;;;;23.97;94.01;99332.94;5048904;28;20635;-69
2023/08/16 00:46:35;;;;;;;2.63;1.27;;;;;;;23.97;93.71;99328.50;5049473;28;20209;-69
2023/08/16 00:49:02;;;;;;;1.57;0.90;;;;;;;23.99;94.14;99318.75;5049250;28;20278;-69
2023/08/16 00:51:28;;;;;;;1.20;1.20;;;;;;;24.01;93.56;99332.53;5049087;28;20224;-69
2023/08/16 00:53:55;;;;;;;1.47;1.43;;;;;;;24.01;93.80;99327.28;5049404;28;20739;-69
2023/08/16 00:56:23;;;;;;;1.00;1.00;;;;;;;23.90;93.40;99309.06;5048964;28;20278;-69
2023/08/16 00:58:51;;;;;;;1.47;1.00;;;;;;;23.99;93.69;99329.22;5049198;28;20215;-69
2023/08/16 01:01:18;;;;;;;1.13;1.10;;;;;;;24.01;93.28;99332.53;5047404;28;20200;-69
2023/08/16 01:03:46;;;;;;;1.00;0.90;;;;;;;24.01;93.54;99329.06;5049187;28;20338;-69
2023/08/16 01:06:12;;;;;;;0.90;0.90;;;;;;;24.02;93.28;99339.44;5048996;28;20584;-69
2023/08/16 01:08:39;;;;;;;1.67;1.57;;;;;;;24.04;93.89;99336.66;5048027;28;20603;-69
2023/08/16 01:11:13;;;;;;;1.27;1.27;;;;;;;24.05;93.58;99331.31;5052567;28;20217;-69
2023/08/16 01:13:50;;;;;;;1.13;1.03;;;;;;;24.07;94.05;99325.94;5052907;28;20193;-69
2023/08/16 01:16:21;;;;;;;1.93;1.20;;;;;;;24.08;93.84;99332.81;5052604;28;20209;-69
2023/08/16 01:18:48;;;;;;;1.20;1.13;;;;;;;24.10;94.54;99325.69;5051540;28;20254;-69
2023/08/16 01:21:16;;;;;;;1.33;1.33;;;;;;;23.99;93.90;99316.13;5051421;28;20274;-69
2023/08/16 01:23:53;;;;;;;1.30;1.20;;;;;;;24.12;94.76;99334.25;5052245;28;20220;-69
2023/08/16 01:26:28;;;;;;;1.37;1.20;;;;;;;24.09;94.80;99331.88;5052435;28;20196;-69
2023/08/16 01:28:56;;;;;;;0.90;0.87;;;;;;;23.95;94.05;99312.09;5052692;28;20204;-69
2023/08/16 01:31:23;;;;;;;2.17;1.03;;;;;;;24.10;94.69;99335.31;5052327;28;20212;-69
2023/08/16 01:33:51;;;;;;;1.20;1.10;;;;;;;24.12;94.35;99336.03;5052240;28;20638;-69
2023/08/16 01:36:17;;;;;;;1.47;1.03;;;;;;;24.00;95.30;99315.19;5052205;28;20610;-69
2023/08/16 01:38:44;;;;;;;1.50;1.40;;;;;;;24.09;95.42;99331.03;5052397;28;20677;-69
2023/08/16 01:41:16;;;;;;;1.47;0.90;;;;;;;24.10;95.52;99327.47;5051852;28;20739;-69
2023/08/16 01:43:45;;;;;;;1.20;1.10;;;;;;;24.05;95.05;99331.31;5052402;28;20228;-69
2023/08/16 01:46:12;;;;;;;2.00;1.23;;;;;;;24.02;95.97;99328.94;5052263;28;21578;-69
2023/08/16 01:48:40;;;;;;;1.83;1.33;;;;;;;24.03;95.50;99335.03;5052365;28;20250;-68
2023/08/16 01:51:07;;;;;;;1.90;1.30;;;;;;;24.02;95.97;99344.66;5051794;28;20658;-69
2023/08/16 01:53:34;;;;;;;1.33;1.17;;;;;;;24.04;96.12;99339.28;5052056;28;20204;-69
2023/08/16 01:56:01;;;;;;;1.40;1.27;;;;;;;24.05;96.19;99339.16;5050786;28;20258;-69
2023/08/16 01:58:28;;;;;;;6.07;1.20;;;;;;;24.03;96.02;99335.84;5051952;28;20201;-69
2023/08/16 02:00:56;;;;;;;1.00;1.00;;;;;;;24.03;96.36;99333.25;5051820;28;20553;-69
2023/08/16 02:03:23;;;;;;;0.90;0.90;;;;;;;24.07;95.76;99338.22;5051541;28;20200;-69
2023/08/16 02:05:50;;;;;;;1.23;1.23;;;;;;;24.09;95.63;99328.41;5051824;28;20204;-69
2023/08/16 02:08:16;;;;;;;0.97;0.97;;;;;;;24.11;95.81;99326.47;5051760;28;20743;-69
2023/08/16 02:10:43;;;;;;;1.80;1.70;;;;;;;24.12;95.88;99323.78;5052016;28;20290;-69
2023/08/16 02:13:10;;;;;;;1.70;1.60;;;;;;;24.13;95.85;99329.84;5051590;28;20197;-69
2023/08/16 02:15:37;;;;;;;1.50;1.40;;;;;;;24.16;95.91;99330.41;5051834;28;20243;-69
2023/08/16 02:18:10;;;;;;;1.27;1.23;;;;;;;24.18;95.92;99331.09;5051617;28;20193;-69
2023/08/16 02:20:38;;;;;;;1.20;1.20;;;;;;;24.21;96.27;99327.38;5050420;28;20193;-69
2023/08/16 02:23:05;;;;;;;1.53;1.43;;;;;;;24.20;95.91;99320.50;5051058;28;20712;-69
2023/08/16 02:25:32;;;;;;;3.80;1.40;;;;;;;24.20;96.31;99325.75;5051858;28;20200;-69
2023/08/16 02:27:58;;;;;;;1.00;0.90;;;;;;;24.25;96.00;99323.53;5052003;28;20743;-69
2023/08/16 02:30:25;;;;;;;1.33;1.07;;;;;;;24.25;95.84;99319.13;5051026;28;20224;-69
2023/08/16 02:32:52;;;;;;;0.90;0.90;;;;;;;24.25;95.41;99318.28;5049834;28;20205;-69
2023/08/16 02:35:20;;;;;;;1.73;0.97;;;;;;;24.25;95.99;99323.53;5051072;28;20549;-69
2023/08/16 02:37:47;;;;;;;1.57;1.57;;;;;;;24.26;96.28;99315.56;5051493;28;20197;-69
2023/08/16 02:40:13;;;;;;;1.00;0.93;;;;;;;24.27;96.58;99321.59;5050968;28;20647;-68
2023/08/16 02:42:40;;;;;;;1.10;1.10;;;;;;;24.25;96.87;99319.13;5051206;28;20250;-69
2023/08/16 02:45:08;;;;;;;1.30;1.03;;;;;;;24.22;96.72;99319.41;5051108;28;20665;-69
2023/08/16 02:47:34;;;;;;;1.90;1.80;;;;;;;24.24;96.19;99319.25;5051076;28;20208;-69
2023/08/16 02:50:01;;;;;;;1.03;0.93;;;;;;;24.25;96.95;99318.28;5050990;28;20208;-69
2023/08/16 02:52:29;;;;;;;1.40;1.30;;;;;;;24.24;96.92;99316.63;5050605;28;20217;-69
2023/08/16 02:54:56;;;;;;;1.60;1.57;;;;;;;24.26;96.91;99318.16;5051165;28;20204;-69
2023/08/16 02:57:23;;;;;;;0.80;0.80;;;;;;;24.26;98.31;99319.97;5050704;28;20197;-69
2023/08/16 02:59:51;;;;;;;0.70;0.70;;;;;;;24.27;97.33;99325.03;5051109;28;20200;-69
2023/08/16 03:02:18;;;;;;;1.07;1.07;;;;;;;24.29;97.04;99324.94;5050899;28;20721;-68
2023/08/16 03:04:44;;;;;;;1.27;1.27;;;;;;;24.26;97.38;99319.97;5050947;28;20550;-69
2023/08/16 03:07:12;;;;;;;1.93;1.83;;;;;;;24.24;97.21;99321.88;5050258;28;20204;-69
2023/08/16 03:09:40;;;;;;;1.30;1.30;;;;;;;24.25;97.38;99326.16;5050890;28;20273;-69
2023/08/16 03:12:08;;;;;;;0.87;0.87;;;;;;;24.24;97.52;99322.69;5048208;28;20734;-69
2023/08/16 03:14:34;;;;;;;1.00;1.00;;;;;;;24.25;97.80;99324.38;5050539;28;20204;-69
2023/08/16 03:17:01;;;;;;;1.20;0.90;;;;;;;24.25;97.25;99318.28;5049481;28;20200;-69
2023/08/16 03:19:28;;;;;;;5.50;1.63;;;;;;;24.27;97.46;99318.97;5050693;28;20287;-69
2023/08/16 03:21:55;;;;;;;1.30;1.17;;;;;;;24.27;97.56;99316.34;5050415;28;20793;-69
2023/08/16 03:24:22;;;;;;;2.70;1.23;;;;;;;24.25;97.22;99313.88;5050455;28;20204;-69
2023/08/16 03:26:50;;;;;;;1.00;1.00;;;;;;;24.22;98.15;99308.09;5050347;28;20247;-69
2023/08/16 03:29:17;;;;;;;1.03;1.03;;;;;;;24.19;99.53;99309.19;5050440;28;20197;-69
2023/08/16 03:31:44;;;;;;;1.53;1.43;;;;;;;24.13;100.00;99304.50;5050606;28;20275;-69
2023/08/16 03:34:10;;;;;;;1.90;1.47;;;;;;;24.09;100.00;99303.06;5049777;28;20290;-69
2023/08/16 03:36:37;;;;;;;1.73;1.27;;;;;;;24.07;100.00;99305.00;5049957;28;20201;-68
2023/08/16 03:39:05;;;;;;;4.53;1.30;;;;;;;24.05;100.00;99307.72;5050284;28;20689;-69
2023/08/16 03:41:32;;;;;;;1.70;1.23;;;;;;;23.97;100.00;99302.31;5046886;28;20279;-69
2023/08/16 03:44:00;;;;;;;1.97;1.87;;;;;;;24.07;100.00;99312.03;5049899;28;20227;-69
2023/08/16 03:46:27;;;;;;;1.43;1.27;;;;;;;24.08;100.00;99311.88;5049957;28;20200;-69
2023/08/16 03:48:54;;;;;;;1.40;1.30;;;;;;;24.12;100.00;99313.28;5050284;28;20193;-69
2023/08/16 03:51:20;;;;;;;1.47;1.37;;;;;;;24.09;100.00;99318.78;5050357;28;20658;-69
2023/08/16 03:53:47;;;;;;;1.23;1.13;;;;;;;24.07;100.00;99319.88;5050417;28;20247;-69
2023/08/16 03:56:14;;;;;;;1.83;1.73;;;;;;;24.04;100.00;99319.16;5050038;28;20250;-69
2023/08/16 03:58:41;;;;;;;1.07;1.07;;;;;;;24.00;100.00;99311.72;5050345;28;20197;-69
2023/08/16 04:01:09;;;;;;;1.37;1.30;;;;;;;23.99;100.00;99318.75;5047469;28;20192;-69
2023/08/16 04:03:35;;;;;;;2.90;1.20;;;;;;;23.99;100.00;99323.97;5050355;28;20196;-69
2023/08/16 04:06:02;;;;;;;2.07;1.30;;;;;;;23.99;100.00;99318.75;5048428;28;20635;-69
2023/08/16 04:08:29;;;;;;;1.10;1.00;;;;;;;24.01;100.00;99319.44;5049359;28;20319;-69
2023/08/16 04:10:55;;;;;;;9.60;1.23;;;;;;;24.03;100.00;99324.56;5049743;28;20220;-69
2023/08/16 04:13:22;;;;;;;1.40;1.10;;;;;;;24.08;100.00;99321.50;5049924;28;20270;-69
2023/08/16 04:15:49;;;;;;;1.30;1.30;;;;;;;24.10;100.00;99325.69;5050295;28;20201;-69
2023/08/16 04:18:17;;;;;;;1.40;1.30;;;;;;;24.06;100.00;99305.94;5048361;28;20676;-69
2023/08/16 04:20:44;;;;;;;1.10;1.10;;;;;;;24.15;100.00;99318.28;5047885;28;20233;-69
2023/08/16 04:23:11;;;;;;;2.90;1.10;;;;;;;24.09;100.00;99307.47;5048822;28;20232;-70
2023/08/16 04:25:38;;;;;;;1.70;1.60;;;;;;;24.26;100.00;99330.44;5046076;28;20272;-69
2023/08/16 04:28:05;;;;;;;1.47;1.37;;;;;;;24.28;100.00;99320.63;5048791;28;20400;-69
2023/08/16 04:30:32;;;;;;;0.57;0.57;;;;;;;24.33;100.00;99331.56;5049791;28;20200;-69
2023/08/16 04:32:59;;;;;;;0.70;0.70;;;;;;;24.24;100.00;99311.38;5049631;28;20220;-69
2023/08/16 04:35:27;;;;;;;1.10;1.00;;;;;;;24.41;100.00;99336.94;5049587;28;20197;-69
2023/08/16 04:37:53;;;;;;;2.23;1.20;;;;;;;24.44;100.00;99328.81;5049637;28;20205;-69
2023/08/16 04:40:20;;;;;;;1.10;0.90;;;;;;;24.45;100.00;99338.34;5049433;28;22549;-69
2023/08/16 04:42:47;;;;;;;1.40;1.30;;;;;;;24.48;100.00;99340.69;5045911;28;20199;-69
2023/08/16 04:45:14;;;;;;;1.40;1.30;;;;;;;24.47;100.00;99336.41;5051454;28;20251;-69
2023/08/16 04:47:41;;;;;;;2.50;1.43;;;;;;;24.44;100.00;99339.28;5053472;28;20219;-69
2023/08/16 04:50:08;;;;;;;1.63;1.20;;;;;;;24.42;100.00;99342.06;5053350;28;20291;-68
2023/08/16 04:52:37;;;;;;;1.13;1.13;;;;;;;24.31;100.00;99329.06;5047273;28;20220;-69
2023/08/16 04:55:04;;;;;;;1.43;1.23;;;;;;;24.30;100.00;99335.25;5053033;28;20196;-69
2023/08/16 04:57:31;;;;;;;2.83;1.40;;;;;;;24.27;100.00;99332.06;5052564;28;20263;-69
2023/08/16 04:59:58;;;;;;;1.23;1.23;;;;;;;24.26;100.00;99340.91;5053321;28;20251;-69
2023/08/16 05:02:25;;;;;;;1.30;1.23;;;;;;;24.25;100.00;99339.25;5053007;28;20759;-69
2023/08/16 05:04:51;;;;;;;1.03;1.03;;;;;;;24.24;100.00;99346.28;5053108;28;20200;-69
2023/08/16 05:07:18;;;;;;;1.30;1.20;;;;;;;24.26;100.00;99346.16;5052813;28;20224;-69
2023/08/16 05:09:46;;;;;;;1.70;1.60;;;;;;;24.28;100.00;99345.06;5053195;28;20222;-69
2023/08/16 05:12:13;;;;;;;1.73;1.20;;;;;;;24.33;100.00;99347.28;5052881;28;20224;-69
2023/08/16 05:14:39;;;;;;;0.70;0.70;;;;;;;24.30;100.00;99340.50;5052884;28;20258;-69
2023/08/16 05:17:06;;;;;;;1.83;1.47;;;;;;;24.41;100.00;99352.66;5052819;28;20688;-69
2023/08/16 05:19:33;;;;;;;1.17;1.17;;;;;;;24.46;100.00;99347.84;5048695;28;20201;-68
2023/08/16 05:21:59;;;;;;;1.67;1.57;;;;;;;24.47;100.00;99344.25;5048934;28;20225;-69
2023/08/16 05:24:26;;;;;;;2.00;1.23;;;;;;;24.50;100.00;99351.84;5049761;28;20565;-66
2023/08/16 05:26:54;;;;;;;1.60;1.50;;;;;;;24.53;100.00;99359.44;5050217;28;20273;-66
2023/08/16 05:29:21;;;;;;;3.27;1.50;;;;;;;24.55;100.00;99352.28;5050281;28;20210;-67
2023/08/16 05:31:48;;;;;;;1.00;1.00;;;;;;;24.59;100.00;99348.41;5049894;28;20577;-67
2023/08/16 05:34:16;;;;;;;1.30;1.30;;;;;;;24.60;100.00;99344.84;5050129;28;20205;-67
2023/08/16 05:36:46;;;;;;;1.30;1.30;;;;;;;24.58;100.00;99336.28;5048875;28;20292;-67
2023/08/16 05:39:13;;;;;;;1.50;1.40;;;;;;;24.59;100.00;99342.38;5050609;28;20311;-67
2023/08/16 05:41:40;;;;;;;3.00;1.00;;;;;;;24.59;100.00;99345.78;5047525;28;20290;-67
2023/08/16 05:44:08;;;;;;;1.23;1.20;;;;;;;24.62;100.00;99345.50;5050647;28;20205;-67
2023/08/16 05:46:35;;;;;;;2.43;1.13;;;;;;;24.67;100.00;99351.19;5051393;28;20258;-67
2023/08/16 05:49:02;;;;;;;2.57;1.17;;;;;;;24.74;100.00;99352.31;5048675;28;20212;-66
2023/08/16 05:51:28;;;;;;;1.30;1.30;;;;;;;24.77;100.00;99351.19;5048844;28;20220;-69
2023/08/16 05:53:55;;;;;;;1.53;1.20;;;;;;;24.81;100.00;99358.66;5049028;28;20289;-69
2023/08/16 05:56:22;;;;;;;1.50;1.23;;;;;;;24.83;100.00;99356.75;5049399;28;20213;-68
2023/08/16 05:58:49;;;;;;;3.70;1.13;;;;;;;24.84;100.00;99352.34;5050272;28;20692;-67
2023/08/16 06:01:17;;;;;;;1.90;1.80;;;;;;;24.92;100.00;99355.94;5050010;28;20216;-68
2023/08/16 06:03:43;;;;;;;1.37;1.00;;;;;;;25.00;100.00;99353.47;5050516;28;20200;-68
2023/08/16 06:06:10;;;;;;;1.10;1.10;;;;;;;25.06;100.00;99363.41;5049692;28;20635;-68
2023/08/16 06:08:37;;;;;;;1.33;1.30;;;;;;;25.07;100.00;99357.16;5049239;28;20200;-68
2023/08/16 06:11:05;;;;;;;1.87;1.40;;;;;;;25.19;100.00;99351.78;5048375;28;20695;-68
2023/08/16 06:13:32;;;;;;;1.43;1.33;;;;;;;25.25;100.00;99351.22;5049470;28;20680;-68
2023/08/16 06:15:58;;;;;;;1.13;1.03;;;;;;;25.36;100.00;99351.91;5048516;28;20201;-68
2023/08/16 06:18:26;;;;;;;0.83;0.83;;;;;;;25.47;100.00;99362.22;5050722;28;20635;-67
2023/08/16 06:20:53;;;;;;;1.53;1.40;;;;;;;25.61;98.87;99353.13;5049982;28;20259;-68
2023/08/16 06:23:20;;;;;;;2.00;1.57;;;;;;;25.75;99.00;99355.25;5050449;28;20781;-67
2023/08/16 06:25:47;;;;;;;1.50;1.00;;;;;;;25.86;97.56;99357.72;5049895;28;20213;-67
2023/08/16 06:28:14;;;;;;;1.30;1.20;;;;;;;25.91;97.11;99350.22;5050067;28;20296;-67
2023/08/16 06:30:40;;;;;;;1.53;1.30;;;;;;;25.99;95.48;99352.97;5049195;28;20209;-67
2023/08/16 06:33:07;;;;;;;1.00;1.00;;;;;;;26.06;95.23;99351.44;5049309;28;20270;-67
2023/08/16 06:35:35;;;;;;;1.80;1.63;;;;;;;26.18;95.23;99343.38;5049349;28;20636;-68
2023/08/16 06:38:02;;;;;;;1.50;1.40;;;;;;;26.26;94.63;99340.84;5049396;28;20208;-68
2023/08/16 06:40:29;;;;;;;4.17;1.67;;;;;;;26.34;94.29;99335.66;5048378;28;20204;-67
2023/08/16 06:42:56;;;;;;;1.50;1.20;;;;;;;26.38;95.12;99331.78;5048637;28;20196;-67
2023/08/16 06:45:23;;;;;;;1.23;1.13;;;;;;;26.50;93.79;99341.09;5049599;28;20251;-68
2023/08/16 06:47:50;;;;;;;1.40;1.30;;;;;;;26.55;92.02;99344.13;5049869;28;20296;-68
2023/08/16 06:50:17;;;;;;;1.23;0.90;;;;;;;26.55;92.63;99346.75;5049668;28;20204;-69
2023/08/16 06:52:45;;;;;;;2.33;2.00;;;;;;;26.59;90.27;99346.28;5049967;28;20216;-69
2023/08/16 06:55:12;;;;;;;1.70;1.60;;;;;;;26.67;90.72;99347.34;5050423;28;20213;-69
2023/08/16 06:57:39;;;;;;;2.97;1.70;;;;;;;26.78;90.28;99353.25;5049510;28;20558;-69
2023/08/16 07:00:08;;;;;;;1.53;1.43;;;;;;;26.93;90.62;99343.88;5049689;28;20339;-69
2023/08/16 07:02:34;;;;;;;1.20;1.20;;;;;;;27.09;87.56;99344.00;5050298;28;20251;-69
2023/08/16 07:05:02;;;;;;;6.40;1.23;;;;;;;27.34;91.45;99339.75;5050332;28;20200;-68
2023/08/16 07:07:28;;;;;;;1.77;1.67;;;;;;;27.49;86.23;99345.31;5046083;28;20685;-68
2023/08/16 07:09:56;;;;;;;1.60;1.50;;;;;;;27.54;88.81;99327.22;5048997;28;20250;-71
2023/08/16 07:12:23;;;;;;;2.10;1.77;;;;;;;27.70;86.75;99343.13;5048739;28;20220;-75
2023/08/16 07:14:51;;;;;;;1.87;1.77;;;;;;;27.82;85.33;99346.34;5050112;28;20255;-68
2023/08/16 07:17:18;;;;;;;1.50;1.40;;;;;;;27.90;86.81;99343.72;5049059;28;20200;-68
2023/08/16 07:19:47;;;;;;;4.30;1.50;;;;;;;27.98;84.05;99341.94;5048973;28;20657;-68
2023/08/16 07:22:14;;;;;;;2.63;1.63;;;;;;;28.06;80.71;99343.84;5048495;28;20290;-68
2023/08/16 07:24:40;;;;;;;1.37;1.30;;;;;;;28.17;80.27;99341.72;5049993;28;20266;-67
2023/08/16 07:27:08;;;;;;;1.10;1.10;;;;;;;28.10;81.18;99319.66;5048123;28;20196;-67
2023/08/16 07:29:35;;;;;;;1.07;1.07;;;;;;;28.30;81.96;99338.66;5049472;28;20212;-67
2023/08/16 07:32:02;;;;;;;1.07;1.07;;;;;;;28.42;82.40;99341.81;5046045;28;20232;-67
2023/08/16 07:34:29;;;;;;;1.00;1.00;;;;;;;28.51;82.55;99343.47;5049550;28;20573;-68
2023/08/16 07:36:55;;;;;;;1.37;1.27;;;;;;;28.50;78.10;99341.81;5047961;28;20262;-67
2023/08/16 07:39:24;;;;;;;1.47;1.47;;;;;;;28.52;78.32;99345.13;5047681;28;20652;-67
2023/08/16 07:41:51;;;;;;;2.00;1.13;;;;;;;28.50;79.08;99341.81;5049830;28;20596;-67
2023/08/16 07:44:19;;;;;;;1.17;1.17;;;;;;;28.56;80.68;99343.84;5045623;28;20270;-67
2023/08/16 07:46:45;;;;;;;5.20;1.00;;;;;;;28.66;79.36;99341.88;5049629;28;20196;-67
2023/08/16 07:49:12;;;;;;;1.07;1.07;;;;;;;28.72;78.46;99343.91;5048331;28;20287;-68
2023/08/16 07:51:39;;;;;;;1.13;1.13;;;;;;;28.74;79.30;99338.44;5048764;28;20246;-68
2023/08/16 07:54:06;;;;;;;0.80;0.80;;;;;;;28.83;78.76;99343.56;5049520;28;20281;-68
2023/08/16 07:56:33;;;;;;;1.47;1.37;;;;;;;28.91;78.59;99343.59;5049014;28;20278;-67
2023/08/16 07:59:00;;;;;;;1.60;1.50;;;;;;;28.92;78.22;99339.13;5048365;28;20250;-67
2023/08/16 08:01:28;;;;;;;1.00;1.00;;;;;;;28.85;75.18;99346.06;5047964;28;20263;-72
2023/08/16 08:03:55;;;;;;;1.37;1.27;;;;;;;28.86;75.52;99343.22;5048805;28;20197;-71
2023/08/16 08:06:21;;;;;;;1.60;1.50;;;;;;;28.83;76.16;99342.72;5048338;28;20205;-70
2023/08/16 08:08:48;;;;;;;1.90;1.60;;;;;;;28.83;75.63;99343.56;5048898;28;20258;-69
2023/08/16 08:11:15;;;;;;;1.92;1.75;;;;;;;28.88;76.30;99343.09;5048904;28;20696;-70
2023/08/16 08:13:42;;;;;;;1.38;1.33;;;;;;;29.03;75.96;99344.06;5048238;28;20219;-70
2023/08/16 08:16:08;;;;;;;1.48;1.48;;;;;;;29.01;76.08;99341.63;5048364;28;20711;-70
2023/08/16 08:18:36;;;;;;;1.70;1.13;;;;;;;29.07;73.89;99340.94;5048440;28;20270;-69
2023/08/16 08:21:03;;;;;;;1.40;1.30;;;;;;;28.99;74.13;99340.94;5053262;28;20584;-70
2023/08/16 08:23:30;;;;;;;1.43;1.17;;;;;;;29.01;75.45;99335.50;5049260;28;20225;-70
2023/08/16 08:25:57;;;;;;;1.50;1.40;;;;;;;28.98;74.65;99338.47;5052093;28;20212;-70
2023/08/16 08:28:24;;;;;;;1.30;1.20;;;;;;;29.07;73.67;99345.41;5051143;28;20201;-70
2023/08/16 08:30:50;;;;;;;1.95;1.08;;;;;;;29.12;72.70;99337.78;5052042;28;20200;-69
2023/08/16 08:33:17;;;;;;;2.20;1.20;;;;;;;29.19;73.59;99344.06;5052254;28;20901;-66
2023/08/16 08:35:46;;;;;;;1.20;1.10;;;;;;;29.23;73.94;99339.28;5051045;28;20270;-66
2023/08/16 08:38:13;;;;;;;1.00;1.00;;;;;;;29.33;72.16;99346.09;5048517;28;20215;-66
2023/08/16 08:40:40;;;;;;;0.90;0.90;;;;;;;29.31;70.95;99341.94;5052628;28;20767;-66
2023/08/16 08:43:07;;;;;;;0.88;0.88;;;;;;;29.44;70.01;99347.53;5052376;28;20196;-66
2023/08/16 08:45:35;;;;;;;1.08;1.08;;;;;;;29.48;70.21;99333.00;5052309;28;20573;-66
2023/08/16 08:48:03;;;;;;;0.82;0.82;;;;;;;29.64;69.88;99343.53;5050641;28;20291;-66
2023/08/16 08:50:30;;;;;;;1.45;1.17;;;;;;;29.77;68.62;99341.19;5052039;28;20200;-67
2023/08/16 08:53:00;;;;;;;1.23;1.20;;;;;;;29.78;67.27;99334.91;5053766;28;20278;-65
2023/08/16 08:55:30;;;;;;;6.07;1.58;;;;;;;29.80;66.43;99311.78;5052728;28;20204;-66
2023/08/16 08:58:01;;;;;;;1.00;1.00;;;;;;;29.98;68.20;99341.50;5053360;28;20259;-65
2023/08/16 09:00:30;;;;;;;1.17;1.13;;;;;;;30.11;67.25;99339.09;5053340;28;20208;-66
2023/08/16 09:02:59;;;;;;;3.42;1.70;;;;;;;30.16;68.07;99328.84;5053170;28;20207;-65
2023/08/16 09:05:26;;;;;;;3.28;1.20;;;;;;;30.30;67.67;99329.94;5053398;28;20262;-66
2023/08/16 09:07:53;;;;;;;1.30;1.20;;;;;;;30.28;66.60;99336.38;5050259;28;20283;-67
2023/08/16 09:10:22;;;;;;;1.30;1.20;;;;;;;30.28;65.17;99337.19;5053834;28;20267;-66
2023/08/16 09:12:50;;;;;;;1.40;1.30;;;;;;;30.26;66.30;99320.69;5053642;28;20216;-66
2023/08/16 09:15:16;;;;;;;1.63;1.52;;;;;;;30.46;65.29;99334.34;5053675;28;20266;-66
2023/08/16 09:17:43;;;;;;;2.05;1.88;;;;;;;30.44;64.59;99331.84;5053891;28;20254;-67
2023/08/16 09:20:12;;;;;;;3.15;2.67;;;;;;;30.37;62.08;99320.31;5053739;28;20661;-66
2023/08/16 09:22:39;;;;;;;1.52;1.42;;;;;;;30.41;61.47;99326.91;5052905;28;20216;-67
2023/08/16 09:25:10;;;;;;;5.93;1.92;;;;;;;30.36;62.30;99334.53;5052346;28;20258;-67
2023/08/16 09:27:41;;;;;;;1.25;1.20;;;;;;;30.25;60.76;99320.84;5052348;28;20694;-66
2023/08/16 09:30:13;;;;;;;0.93;0.93;;;;;;;30.32;61.46;99332.41;5052014;28;20201;-65
2023/08/16 09:32:40;;;;;;;1.80;1.75;;;;;;;30.30;61.37;99327.28;5051982;28;20216;-66
2023/08/16 09:35:12;;;;;;;1.48;1.40;;;;;;;30.30;62.74;99329.94;5052219;28;20200;-67
2023/08/16 09:37:39;;;;;;;1.65;1.48;;;;;;;30.28;63.29;99325.78;5052401;28;20622;-67
2023/08/16 09:40:08;;;;;;;1.20;1.10;;;;;;;30.26;63.45;99333.91;5052027;28;20263;-67
2023/08/16 09:42:35;;;;;;;1.20;1.20;;;;;;;30.12;62.75;99327.53;5051872;28;20274;-66
2023/08/16 09:45:04;;;;;;;1.25;1.20;;;;;;;30.15;64.71;99327.19;5052174;28;20204;-66
2023/08/16 09:47:31;;;;;;;1.67;1.58;;;;;;;30.24;65.43;99328.00;5052153;28;20204;-66
2023/08/16 09:49:58;;;;;;;1.42;1.30;;;;;;;30.40;65.20;99340.34;5051948;28;20196;-67
2023/08/16 09:52:25;;;;;;;1.48;1.20;;;;;;;30.51;65.55;99342.56;5051590;28;20208;-66
2023/08/16 09:54:53;;;;;;;1.15;1.15;;;;;;;30.55;63.28;99346.50;5051834;28;20200;-67
2023/08/16 09:57:20;;;;;;;1.60;1.52;;;;;;;30.69;63.52;99343.13;5051764;28;20208;-66
2023/08/16 09:59:48;;;;;;;2.90;1.10;;;;;;;30.82;61.45;99340.72;5051803;28;20197;-66
2023/08/16 10:02:18;;;;;;;1.95;1.85;;;;;;;30.91;60.55;99334.38;5051790;28;20212;-67
2023/08/16 10:04:46;;;;;;;0.80;0.80;;;;;;;30.96;61.68;99339.97;5052178;28;20265;-66
2023/08/16 10:07:15;;;;;;;1.08;1.08;;;;;;;30.94;61.67;99339.31;5051809;28;20216;-66
2023/08/16 10:09:43;;;;;;;1.02;1.02;;;;;;;30.94;61.85;99333.19;5051170;28;20205;-67
2023/08/16 10:12:10;;;;;;;1.42;1.30;;;;;;;31.08;61.10;99351.78;5051507;28;20193;-68
2023/08/16 10:14:37;;;;;;;1.42;1.30;;;;;;;31.17;61.16;99340.13;5049791;28;20528;-68
2023/08/16 10:17:06;;;;;;;1.20;1.10;;;;;;;31.17;60.24;99345.44;5047460;28;20311;-68
2023/08/16 10:19:37;;;;;;;1.58;1.17;;;;;;;31.32;60.85;99352.56;5049296;28;20200;-68
2023/08/16 10:22:13;;;;;;;1.50;1.42;;;;;;;31.43;60.64;99344.19;5006702;28;1223287;-68
2023/08/16 10:24:42;;;;;;;1.10;1.00;;;;;;;31.52;58.50;99343.97;5050451;28;20262;-68
2023/08/16 10:27:11;;;;;;;1.17;1.17;;;;;;;31.71;57.73;99347.91;5050455;28;20559;-68
2023/08/16 10:29:41;;;;;;;1.80;1.23;;;;;;;31.81;59.32;99348.47;5046368;28;20223;-68
2023/08/16 10:32:12;;;;;;;1.70;1.13;;;;;;;31.97;58.44;99350.91;5049077;28;20212;-68
2023/08/16 10:34:41;;;;;;;5.40;1.25;;;;;;;31.98;56.54;99349.09;5050111;28;20282;-69
2023/08/16 10:37:09;;;;;;;1.92;1.50;;;;;;;31.91;56.87;99341.06;5048975;28;20213;-69
2023/08/16 10:39:35;;;;;;;1.48;1.17;;;;;;;31.85;56.50;99339.13;5050567;28;20665;-68
2023/08/16 10:42:06;;;;;;;1.48;1.38;;;;;;;31.86;57.14;99334.66;5047836;28;20255;-68
2023/08/16 10:44:34;;;;;;;1.63;1.13;;;;;;;31.93;58.23;99338.19;5047836;28;20279;-72
2023/08/16 10:47:01;;;;;;;1.35;1.27;;;;;;;31.97;58.52;99340.31;5049434;28;20204;-68
2023/08/16 10:49:36;;;;;;;1.33;1.23;;;;;;;31.93;58.10;99323.13;5048399;28;20197;-68
2023/08/16 10:52:05;;;;;;;1.20;1.20;;;;;;;32.11;57.27;99336.88;5047769;28;20299;-68
2023/08/16 10:54:33;;;;;;;1.40;1.30;;;;;;;32.35;59.69;99324.25;5050149;28;20217;-68
2023/08/16 10:57:02;;;;;;;2.60;1.83;;;;;;;32.43;55.00;99327.63;5050164;28;20200;-67
2023/08/16 10:59:38;;;;;;;1.00;1.00;;;;;;;32.40;56.40;99313.91;5050003;28;20192;-68
2023/08/16 11:02:14;;;;;;;1.48;1.38;;;;;;;32.16;56.26;99321.19;5049283;28;20250;-68
2023/08/16 11:04:42;;;;;;;1.42;1.33;;;;;;;32.10;55.73;99319.28;5050822;28;20210;-68
2023/08/16 11:07:12;;;;;;;2.75;1.45;;;;;;;32.06;57.96;99320.66;5049964;28;20208;-68
2023/08/16 11:09:39;;;;;;;1.35;1.35;;;;;;;32.13;57.16;99310.13;5050319;28;20607;-66
2023/08/16 11:12:07;;;;;;;1.30;1.20;;;;;;;32.24;56.68;99318.44;5050334;28;20209;-66
2023/08/16 11:14:34;;;;;;;0.88;0.85;;;;;;;32.29;55.55;99314.41;5050282;28;20251;-66
2023/08/16 11:17:02;;;;;;;1.10;1.00;;;;;;;32.33;55.98;99313.00;5050211;28;20254;-67
2023/08/16 11:19:29;;;;;;;1.58;1.48;;;;;;;32.38;55.24;99303.47;5049788;28;20207;-66
2023/08/16 11:21:58;;;;;;;1.20;1.20;;;;;;;32.47;57.83;99312.16;5050035;28;20232;-66
2023/08/16 11:24:26;;;;;;;1.20;1.20;;;;;;;32.35;54.89;99305.69;5048862;28;20205;-66
2023/08/16 11:26:54;;;;;;;1.50;1.40;;;;;;;32.02;56.28;99298.13;5047690;28;20635;-66
2023/08/16 11:29:20;;;;;;;1.55;1.45;;;;;;;32.12;58.71;99296.03;5047676;28;20213;-66
2023/08/16 11:31:47;;;;;;;1.58;0.88;;;;;;;32.29;59.34;99293.16;5049738;28;20201;-66